sensor_id;sensor_type;location;lat;lon;timestamp;P1;durP1;ratioP1;P2;durP2;ratioP2
4903;SDS011;2467;48.142;11.616;2023-06-10T00:00:09;7.45;;;6.80;;
4903;SDS011;2467;48.142;11.616;2023-06-10T00:00:44;8.15;;;7.63;;
4903;SDS011;2467;48.142;11.616;2023-06-10T00:01:18;10.60;;;9.80;;
4903;SDS011;2467;48.142;11.616;2023-06-10T00:01:50;13.57;;;12.48;;
4903;SDS011;2467;48.142;11.616;2023-06-10T00:02:26;29.85;;;26.65;;
4903;SDS011;2467;48.142;11.616;2023-06-10T00:02:59;24.92;;;22.58;;
4903;SDS011;2467;48.142;11.616;2023-06-10T00:03:33;15.52;;;14.10;;
4903;SDS011;2467;48.142;11.616;2023-06-10T00:04:05;18.08;;;16.38;;
4903;SDS011;2467;48.142;11.616;2023-06-10T00:04:38;20.20;;;18.30;;
4903;SDS011;2467;48.142;11.616;2023-06-10T00:05:10;21.50;;;19.63;;
4903;SDS011;2467;48.142;11.616;2023-06-10T00:05:42;44.33;;;40.28;;
4903;SDS011;2467;48.142;11.616;2023-06-10T00:06:15;39.47;;;35.88;;
4903;SDS011;2467;48.142;11.616;2023-06-10T00:06:47;36.60;;;33.30;;
4903;SDS011;2467;48.142;11.616;2023-06-10T00:07:20;52.83;;;47.83;;
4903;SDS011;2467;48.142;11.616;2023-06-10T00:07:53;34.33;;;31.13;;
4903;SDS011;2467;48.142;11.616;2023-06-10T00:08:26;22.30;;;20.20;;
4903;SDS011;2467;48.142;11.616;2023-06-10T00:08:58;16.98;;;15.60;;
4903;SDS011;2467;48.142;11.616;2023-06-10T00:09:32;13.68;;;12.57;;
4903;SDS011;2467;48.142;11.616;2023-06-10T00:10:04;12.27;;;11.27;;
4903;SDS011;2467;48.142;11.616;2023-06-10T00:10:37;11.63;;;10.70;;
4903;SDS011;2467;48.142;11.616;2023-06-10T00:11:10;8.75;;;8.07;;
4903;SDS011;2467;48.142;11.616;2023-06-10T00:11:42;8.65;;;7.85;;
4903;SDS011;2467;48.142;11.616;2023-06-10T00:12:14;7.90;;;7.28;;
4903;SDS011;2467;48.142;11.616;2023-06-10T00:12:48;7.93;;;7.30;;
4903;SDS011;2467;48.142;11.616;2023-06-10T00:13:20;8.68;;;7.97;;
4903;SDS011;2467;48.142;11.616;2023-06-10T00:13:52;8.13;;;7.32;;
4903;SDS011;2467;48.142;11.616;2023-06-10T00:14:25;8.10;;;7.50;;
4903;SDS011;2467;48.142;11.616;2023-06-10T00:14:57;7.57;;;6.97;;
4903;SDS011;2467;48.142;11.616;2023-06-10T00:15:29;8.60;;;7.88;;
4903;SDS011;2467;48.142;11.616;2023-06-10T00:16:02;7.30;;;6.80;;
4903;SDS011;2467;48.142;11.616;2023-06-10T00:16:36;7.50;;;7.00;;
4903;SDS011;2467;48.142;11.616;2023-06-10T00:17:10;8.15;;;7.55;;
4903;SDS011;2467;48.142;11.616;2023-06-10T00:17:42;7.95;;;7.40;;
4903;SDS011;2467;48.142;11.616;2023-06-10T00:18:14;7.95;;;6.85;;
4903;SDS011;2467;48.142;11.616;2023-06-10T00:18:48;8.15;;;7.50;;
4903;SDS011;2467;48.142;11.616;2023-06-10T00:19:22;6.63;;;6.03;;
4903;SDS011;2467;48.142;11.616;2023-06-10T00:19:56;8.43;;;7.78;;
4903;SDS011;2467;48.142;11.616;2023-06-10T00:20:30;7.63;;;7.03;;
4903;SDS011;2467;48.142;11.616;2023-06-10T00:21:02;8.15;;;7.38;;
4903;SDS011;2467;48.142;11.616;2023-06-10T00:21:36;7.93;;;7.30;;
4903;SDS011;2467;48.142;11.616;2023-06-10T00:22:11;7.55;;;6.85;;
4903;SDS011;2467;48.142;11.616;2023-06-10T00:22:43;6.30;;;5.80;;
4903;SDS011;2467;48.142;11.616;2023-06-10T00:23:17;7.72;;;7.22;;
4903;SDS011;2467;48.142;11.616;2023-06-10T00:23:50;7.18;;;6.60;;
4903;SDS011;2467;48.142;11.616;2023-06-10T00:24:22;7.20;;;6.80;;
4903;SDS011;2467;48.142;11.616;2023-06-10T00:24:54;6.80;;;6.30;;
4903;SDS011;2467;48.142;11.616;2023-06-10T00:25:27;7.25;;;6.75;;
4903;SDS011;2467;48.142;11.616;2023-06-10T00:25:59;6.97;;;6.57;;
4903;SDS011;2467;48.142;11.616;2023-06-10T00:26:31;6.75;;;6.25;;
4903;SDS011;2467;48.142;11.616;2023-06-10T00:27:04;5.93;;;5.53;;
4903;SDS011;2467;48.142;11.616;2023-06-10T00:27:38;7.22;;;6.63;;
4903;SDS011;2467;48.142;11.616;2023-06-10T00:28:10;7.53;;;7.03;;
4903;SDS011;2467;48.142;11.616;2023-06-10T00:28:42;7.38;;;6.88;;
4903;SDS011;2467;48.142;11.616;2023-06-10T00:29:16;7.10;;;6.60;;
4903;SDS011;2467;48.142;11.616;2023-06-10T00:29:48;7.13;;;6.63;;
4903;SDS011;2467;48.142;11.616;2023-06-10T00:30:21;6.90;;;6.40;;
4903;SDS011;2467;48.142;11.616;2023-06-10T00:30:53;6.60;;;6.13;;
4903;SDS011;2467;48.142;11.616;2023-06-10T00:31:25;7.32;;;6.80;;
4903;SDS011;2467;48.142;11.616;2023-06-10T00:32:00;9.77;;;7.25;;
4903;SDS011;2467;48.142;11.616;2023-06-10T00:32:32;6.63;;;6.13;;
4903;SDS011;2467;48.142;11.616;2023-06-10T00:33:04;7.80;;;7.30;;
4903;SDS011;2467;48.142;11.616;2023-06-10T00:33:37;7.78;;;7.18;;
4903;SDS011;2467;48.142;11.616;2023-06-10T00:34:09;6.72;;;6.22;;
4903;SDS011;2467;48.142;11.616;2023-06-10T00:34:41;7.60;;;7.03;;
4903;SDS011;2467;48.142;11.616;2023-06-10T00:35:13;6.70;;;6.20;;
4903;SDS011;2467;48.142;11.616;2023-06-10T00:35:45;7.38;;;6.88;;
4903;SDS011;2467;48.142;11.616;2023-06-10T00:36:17;7.32;;;6.82;;
4903;SDS011;2467;48.142;11.616;2023-06-10T00:36:51;7.68;;;7.07;;
4903;SDS011;2467;48.142;11.616;2023-06-10T00:37:23;7.20;;;6.53;;
4903;SDS011;2467;48.142;11.616;2023-06-10T00:37:55;7.13;;;6.72;;
4903;SDS011;2467;48.142;11.616;2023-06-10T00:38:28;7.00;;;6.50;;
4903;SDS011;2467;48.142;11.616;2023-06-10T00:39:00;7.75;;;7.25;;
4903;SDS011;2467;48.142;11.616;2023-06-10T00:39:32;8.13;;;7.45;;
4903;SDS011;2467;48.142;11.616;2023-06-10T00:40:05;7.40;;;6.90;;
4903;SDS011;2467;48.142;11.616;2023-06-10T00:40:40;6.30;;;5.80;;
4903;SDS011;2467;48.142;11.616;2023-06-10T00:41:12;7.25;;;6.65;;
4903;SDS011;2467;48.142;11.616;2023-06-10T00:41:45;7.60;;;6.97;;
4903;SDS011;2467;48.142;11.616;2023-06-10T00:42:17;6.60;;;6.20;;
4903;SDS011;2467;48.142;11.616;2023-06-10T00:42:50;9.32;;;7.93;;
4903;SDS011;2467;48.142;11.616;2023-06-10T00:43:23;7.70;;;7.15;;
4903;SDS011;2467;48.142;11.616;2023-06-10T00:43:55;7.65;;;7.15;;
4903;SDS011;2467;48.142;11.616;2023-06-10T00:44:27;7.63;;;7.13;;
4903;SDS011;2467;48.142;11.616;2023-06-10T00:45:00;7.40;;;6.90;;
4903;SDS011;2467;48.142;11.616;2023-06-10T00:45:32;8.15;;;7.53;;
4903;SDS011;2467;48.142;11.616;2023-06-10T00:46:05;8.40;;;7.75;;
4903;SDS011;2467;48.142;11.616;2023-06-10T00:46:38;7.32;;;6.72;;
4903;SDS011;2467;48.142;11.616;2023-06-10T00:47:11;7.45;;;6.78;;
4903;SDS011;2467;48.142;11.616;2023-06-10T00:47:43;6.85;;;6.45;;
4903;SDS011;2467;48.142;11.616;2023-06-10T00:48:16;7.63;;;7.13;;
4903;SDS011;2467;48.142;11.616;2023-06-10T00:48:48;7.43;;;6.82;;
4903;SDS011;2467;48.142;11.616;2023-06-10T00:49:21;7.15;;;6.65;;
4903;SDS011;2467;48.142;11.616;2023-06-10T00:49:53;7.65;;;7.03;;
4903;SDS011;2467;48.142;11.616;2023-06-10T00:50:26;7.80;;;7.10;;
4903;SDS011;2467;48.142;11.616;2023-06-10T00:50:58;8.10;;;6.65;;
4903;SDS011;2467;48.142;11.616;2023-06-10T00:51:32;9.02;;;8.32;;
4903;SDS011;2467;48.142;11.616;2023-06-10T00:52:05;7.18;;;6.68;;
4903;SDS011;2467;48.142;11.616;2023-06-10T00:52:39;8.05;;;7.45;;
4903;SDS011;2467;48.142;11.616;2023-06-10T00:53:14;7.97;;;7.47;;
4903;SDS011;2467;48.142;11.616;2023-06-10T00:53:46;7.60;;;7.00;;
4903;SDS011;2467;48.142;11.616;2023-06-10T00:54:19;7.13;;;6.63;;
4903;SDS011;2467;48.142;11.616;2023-06-10T00:54:52;9.00;;;8.30;;
4903;SDS011;2467;48.142;11.616;2023-06-10T00:55:24;7.38;;;6.88;;
4903;SDS011;2467;48.142;11.616;2023-06-10T00:55:58;8.13;;;7.53;;
4903;SDS011;2467;48.142;11.616;2023-06-10T00:56:31;8.38;;;7.78;;
4903;SDS011;2467;48.142;11.616;2023-06-10T00:57:04;8.05;;;7.45;;
4903;SDS011;2467;48.142;11.616;2023-06-10T00:57:37;7.20;;;6.70;;
4903;SDS011;2467;48.142;11.616;2023-06-10T00:58:09;8.10;;;7.50;;
4903;SDS011;2467;48.142;11.616;2023-06-10T00:58:42;8.55;;;7.97;;
4903;SDS011;2467;48.142;11.616;2023-06-10T00:59:15;8.40;;;7.70;;
4903;SDS011;2467;48.142;11.616;2023-06-10T00:59:47;9.10;;;8.35;;
4903;SDS011;2467;48.142;11.616;2023-06-10T01:00:21;8.02;;;7.43;;
4903;SDS011;2467;48.142;11.616;2023-06-10T01:00:54;8.13;;;7.43;;
4903;SDS011;2467;48.142;11.616;2023-06-10T01:01:26;7.90;;;7.30;;
4903;SDS011;2467;48.142;11.616;2023-06-10T01:02:00;7.63;;;7.13;;
4903;SDS011;2467;48.142;11.616;2023-06-10T01:02:34;8.52;;;7.93;;
4903;SDS011;2467;48.142;11.616;2023-06-10T01:03:07;8.75;;;7.82;;
4903;SDS011;2467;48.142;11.616;2023-06-10T01:03:40;7.90;;;7.40;;
4903;SDS011;2467;48.142;11.616;2023-06-10T01:04:13;8.32;;;7.78;;
4903;SDS011;2467;48.142;11.616;2023-06-10T01:04:45;8.45;;;7.75;;
4903;SDS011;2467;48.142;11.616;2023-06-10T01:05:19;8.45;;;7.85;;
4903;SDS011;2467;48.142;11.616;2023-06-10T01:05:53;8.10;;;7.55;;
4903;SDS011;2467;48.142;11.616;2023-06-10T01:06:38;7.55;;;7.05;;
4903;SDS011;2467;48.142;11.616;2023-06-10T01:07:22;8.55;;;7.95;;
4903;SDS011;2467;48.142;11.616;2023-06-10T01:07:59;8.63;;;8.02;;
4903;SDS011;2467;48.142;11.616;2023-06-10T01:08:39;7.85;;;7.25;;
4903;SDS011;2467;48.142;11.616;2023-06-10T01:09:18;8.32;;;7.72;;
4903;SDS011;2467;48.142;11.616;2023-06-10T01:09:58;8.27;;;7.57;;
4903;SDS011;2467;48.142;11.616;2023-06-10T01:10:36;8.15;;;7.55;;
4903;SDS011;2467;48.142;11.616;2023-06-10T01:11:13;8.10;;;7.57;;
4903;SDS011;2467;48.142;11.616;2023-06-10T01:11:52;7.80;;;7.30;;
4903;SDS011;2467;48.142;11.616;2023-06-10T01:12:31;8.05;;;7.35;;
4903;SDS011;2467;48.142;11.616;2023-06-10T01:13:06;7.38;;;6.88;;
4903;SDS011;2467;48.142;11.616;2023-06-10T01:13:42;8.38;;;7.78;;
4903;SDS011;2467;48.142;11.616;2023-06-10T01:14:16;8.10;;;7.60;;
4903;SDS011;2467;48.142;11.616;2023-06-10T01:14:48;8.18;;;7.68;;
4903;SDS011;2467;48.142;11.616;2023-06-10T01:15:22;8.70;;;8.10;;
4903;SDS011;2467;48.142;11.616;2023-06-10T01:15:55;8.75;;;8.05;;
4903;SDS011;2467;48.142;11.616;2023-06-10T01:16:28;9.13;;;8.32;;
4903;SDS011;2467;48.142;11.616;2023-06-10T01:17:00;7.90;;;7.30;;
4903;SDS011;2467;48.142;11.616;2023-06-10T01:17:36;7.38;;;6.75;;
4903;SDS011;2467;48.142;11.616;2023-06-10T01:18:22;8.43;;;7.82;;
4903;SDS011;2467;48.142;11.616;2023-06-10T01:18:54;8.35;;;7.75;;
4903;SDS011;2467;48.142;11.616;2023-06-10T01:19:27;8.65;;;8.00;;
4903;SDS011;2467;48.142;11.616;2023-06-10T01:20:01;8.30;;;7.70;;
4903;SDS011;2467;48.142;11.616;2023-06-10T01:20:43;7.95;;;7.43;;
4903;SDS011;2467;48.142;11.616;2023-06-10T01:21:23;8.65;;;8.05;;
4903;SDS011;2467;48.142;11.616;2023-06-10T01:21:56;8.32;;;7.72;;
4903;SDS011;2467;48.142;11.616;2023-06-10T01:22:31;8.48;;;7.88;;
4903;SDS011;2467;48.142;11.616;2023-06-10T01:23:07;7.20;;;6.65;;
4903;SDS011;2467;48.142;11.616;2023-06-10T01:23:41;9.13;;;8.48;;
4903;SDS011;2467;48.142;11.616;2023-06-10T01:24:13;9.02;;;8.23;;
4903;SDS011;2467;48.142;11.616;2023-06-10T01:24:45;8.70;;;8.10;;
4903;SDS011;2467;48.142;11.616;2023-06-10T01:25:21;8.93;;;8.32;;
4903;SDS011;2467;48.142;11.616;2023-06-10T01:25:59;8.63;;;8.02;;
4903;SDS011;2467;48.142;11.616;2023-06-10T01:26:34;9.35;;;8.63;;
4903;SDS011;2467;48.142;11.616;2023-06-10T01:27:09;8.27;;;7.50;;
4903;SDS011;2467;48.142;11.616;2023-06-10T01:27:43;8.77;;;8.18;;
4903;SDS011;2467;48.142;11.616;2023-06-10T01:28:19;8.85;;;8.13;;
4903;SDS011;2467;48.142;11.616;2023-06-10T01:29:00;8.02;;;7.25;;
4903;SDS011;2467;48.142;11.616;2023-06-10T01:29:38;8.45;;;7.85;;
4903;SDS011;2467;48.142;11.616;2023-06-10T01:30:16;8.18;;;7.57;;
4903;SDS011;2467;48.142;11.616;2023-06-10T01:30:56;8.65;;;7.75;;
4903;SDS011;2467;48.142;11.616;2023-06-10T01:31:41;7.97;;;7.40;;
4903;SDS011;2467;48.142;11.616;2023-06-10T01:32:21;8.00;;;7.47;;
4903;SDS011;2467;48.142;11.616;2023-06-10T01:32:58;8.68;;;7.90;;
4903;SDS011;2467;48.142;11.616;2023-06-10T01:33:35;8.30;;;7.70;;
4903;SDS011;2467;48.142;11.616;2023-06-10T01:34:10;8.23;;;7.53;;
4903;SDS011;2467;48.142;11.616;2023-06-10T01:34:43;7.65;;;7.15;;
4903;SDS011;2467;48.142;11.616;2023-06-10T01:35:17;8.32;;;7.53;;
4903;SDS011;2467;48.142;11.616;2023-06-10T01:35:52;7.40;;;6.88;;
4903;SDS011;2467;48.142;11.616;2023-06-10T01:36:26;7.72;;;7.22;;
4903;SDS011;2467;48.142;11.616;2023-06-10T01:36:59;8.90;;;8.00;;
4903;SDS011;2467;48.142;11.616;2023-06-10T01:37:32;8.77;;;8.07;;
4903;SDS011;2467;48.142;11.616;2023-06-10T01:38:05;8.23;;;7.43;;
4903;SDS011;2467;48.142;11.616;2023-06-10T01:38:39;9.57;;;8.88;;
4903;SDS011;2467;48.142;11.616;2023-06-10T01:39:14;9.20;;;8.02;;
4903;SDS011;2467;48.142;11.616;2023-06-10T01:39:48;8.60;;;7.97;;
4903;SDS011;2467;48.142;11.616;2023-06-10T01:40:21;8.35;;;7.75;;
4903;SDS011;2467;48.142;11.616;2023-06-10T01:40:55;11.40;;;8.35;;
4903;SDS011;2467;48.142;11.616;2023-06-10T01:41:27;9.30;;;8.60;;
4903;SDS011;2467;48.142;11.616;2023-06-10T01:42:01;8.07;;;7.57;;
4903;SDS011;2467;48.142;11.616;2023-06-10T01:42:34;8.43;;;7.82;;
4903;SDS011;2467;48.142;11.616;2023-06-10T01:43:07;9.55;;;8.85;;
4903;SDS011;2467;48.142;11.616;2023-06-10T01:43:40;9.25;;;8.65;;
4903;SDS011;2467;48.142;11.616;2023-06-10T01:44:17;9.52;;;8.75;;
4903;SDS011;2467;48.142;11.616;2023-06-10T01:44:49;9.63;;;8.80;;
4903;SDS011;2467;48.142;11.616;2023-06-10T01:45:22;8.77;;;8.13;;
4903;SDS011;2467;48.142;11.616;2023-06-10T01:45:54;9.48;;;8.77;;
4903;SDS011;2467;48.142;11.616;2023-06-10T01:46:25;8.32;;;7.80;;
4903;SDS011;2467;48.142;11.616;2023-06-10T01:46:58;10.38;;;9.55;;
4903;SDS011;2467;48.142;11.616;2023-06-10T01:47:30;8.40;;;7.65;;
4903;SDS011;2467;48.142;11.616;2023-06-10T01:48:02;10.23;;;9.25;;
4903;SDS011;2467;48.142;11.616;2023-06-10T01:49:08;9.02;;;8.32;;
4903;SDS011;2467;48.142;11.616;2023-06-10T01:49:40;9.35;;;8.43;;
4903;SDS011;2467;48.142;11.616;2023-06-10T01:50:12;9.18;;;8.40;;
4903;SDS011;2467;48.142;11.616;2023-06-10T01:50:45;8.70;;;8.10;;
4903;SDS011;2467;48.142;11.616;2023-06-10T01:51:17;9.13;;;8.52;;
4903;SDS011;2467;48.142;11.616;2023-06-10T01:51:51;9.63;;;8.73;;
4903;SDS011;2467;48.142;11.616;2023-06-10T01:52:23;9.32;;;8.50;;
4903;SDS011;2467;48.142;11.616;2023-06-10T01:52:56;8.68;;;8.07;;
4903;SDS011;2467;48.142;11.616;2023-06-10T01:53:30;9.65;;;8.88;;
4903;SDS011;2467;48.142;11.616;2023-06-10T01:54:02;8.95;;;8.25;;
4903;SDS011;2467;48.142;11.616;2023-06-10T01:54:34;9.70;;;9.00;;
4903;SDS011;2467;48.142;11.616;2023-06-10T01:55:07;9.52;;;8.82;;
4903;SDS011;2467;48.142;11.616;2023-06-10T01:55:39;9.40;;;8.70;;
4903;SDS011;2467;48.142;11.616;2023-06-10T01:56:11;9.10;;;8.40;;
4903;SDS011;2467;48.142;11.616;2023-06-10T01:56:47;9.40;;;8.70;;
4903;SDS011;2467;48.142;11.616;2023-06-10T01:57:19;9.60;;;8.88;;
4903;SDS011;2467;48.142;11.616;2023-06-10T01:57:51;8.55;;;7.95;;
4903;SDS011;2467;48.142;11.616;2023-06-10T01:58:24;8.55;;;7.95;;
4903;SDS011;2467;48.142;11.616;2023-06-10T01:58:56;10.25;;;8.10;;
4903;SDS011;2467;48.142;11.616;2023-06-10T01:59:30;8.60;;;8.00;;
4903;SDS011;2467;48.142;11.616;2023-06-10T02:00:03;9.45;;;8.75;;
4903;SDS011;2467;48.142;11.616;2023-06-10T02:00:36;10.20;;;9.30;;
4903;SDS011;2467;48.142;11.616;2023-06-10T02:01:08;8.65;;;7.95;;
4903;SDS011;2467;48.142;11.616;2023-06-10T02:01:41;9.52;;;8.82;;
4903;SDS011;2467;48.142;11.616;2023-06-10T02:02:13;9.68;;;8.75;;
4903;SDS011;2467;48.142;11.616;2023-06-10T02:02:45;9.07;;;8.45;;
4903;SDS011;2467;48.142;11.616;2023-06-10T02:03:18;8.80;;;7.90;;
4903;SDS011;2467;48.142;11.616;2023-06-10T02:03:50;9.68;;;8.75;;
4903;SDS011;2467;48.142;11.616;2023-06-10T02:04:22;9.18;;;8.48;;
4903;SDS011;2467;48.142;11.616;2023-06-10T02:04:55;8.95;;;8.35;;
4903;SDS011;2467;48.142;11.616;2023-06-10T02:05:27;9.27;;;8.35;;
4903;SDS011;2467;48.142;11.616;2023-06-10T02:05:59;9.80;;;8.90;;
4903;SDS011;2467;48.142;11.616;2023-06-10T02:06:31;10.90;;;9.85;;
4903;SDS011;2467;48.142;11.616;2023-06-10T02:07:05;9.18;;;8.35;;
4903;SDS011;2467;48.142;11.616;2023-06-10T02:07:37;8.95;;;8.25;;
4903;SDS011;2467;48.142;11.616;2023-06-10T02:08:10;9.20;;;8.50;;
4903;SDS011;2467;48.142;11.616;2023-06-10T02:08:42;9.88;;;9.18;;
4903;SDS011;2467;48.142;11.616;2023-06-10T02:09:13;10.30;;;9.40;;
4903;SDS011;2467;48.142;11.616;2023-06-10T02:09:46;9.80;;;8.57;;
4903;SDS011;2467;48.142;11.616;2023-06-10T02:10:18;9.80;;;9.05;;
4903;SDS011;2467;48.142;11.616;2023-06-10T02:10:50;9.32;;;8.65;;
4903;SDS011;2467;48.142;11.616;2023-06-10T02:11:23;9.63;;;8.88;;
4903;SDS011;2467;48.142;11.616;2023-06-10T02:11:55;9.07;;;8.38;;
4903;SDS011;2467;48.142;11.616;2023-06-10T02:12:27;9.30;;;8.45;;
4903;SDS011;2467;48.142;11.616;2023-06-10T02:13:00;9.95;;;9.23;;
4903;SDS011;2467;48.142;11.616;2023-06-10T02:13:32;8.40;;;7.70;;
4903;SDS011;2467;48.142;11.616;2023-06-10T02:14:04;9.90;;;9.13;;
4903;SDS011;2467;48.142;11.616;2023-06-10T02:14:36;8.75;;;8.15;;
4903;SDS011;2467;48.142;11.616;2023-06-10T02:15:08;8.98;;;8.38;;
4903;SDS011;2467;48.142;11.616;2023-06-10T02:15:41;9.65;;;8.95;;
4903;SDS011;2467;48.142;11.616;2023-06-10T02:16:13;9.73;;;8.93;;
4903;SDS011;2467;48.142;11.616;2023-06-10T02:16:48;9.63;;;8.85;;
4903;SDS011;2467;48.142;11.616;2023-06-10T02:17:20;9.32;;;8.73;;
4903;SDS011;2467;48.142;11.616;2023-06-10T02:17:54;11.85;;;10.80;;
4903;SDS011;2467;48.142;11.616;2023-06-10T02:18:27;9.07;;;8.38;;
4903;SDS011;2467;48.142;11.616;2023-06-10T02:18:59;9.05;;;8.38;;
4903;SDS011;2467;48.142;11.616;2023-06-10T02:19:34;8.75;;;8.05;;
4903;SDS011;2467;48.142;11.616;2023-06-10T02:20:08;10.63;;;9.57;;
4903;SDS011;2467;48.142;11.616;2023-06-10T02:20:42;9.85;;;9.10;;
4903;SDS011;2467;48.142;11.616;2023-06-10T02:21:14;10.63;;;9.93;;
4903;SDS011;2467;48.142;11.616;2023-06-10T02:21:46;9.65;;;9.05;;
4903;SDS011;2467;48.142;11.616;2023-06-10T02:22:21;10.52;;;9.02;;
4903;SDS011;2467;48.142;11.616;2023-06-10T02:22:54;9.55;;;8.60;;
4903;SDS011;2467;48.142;11.616;2023-06-10T02:23:26;9.93;;;9.13;;
4903;SDS011;2467;48.142;11.616;2023-06-10T02:23:58;9.50;;;8.77;;
4903;SDS011;2467;48.142;11.616;2023-06-10T02:24:31;9.77;;;9.07;;
4903;SDS011;2467;48.142;11.616;2023-06-10T02:25:03;9.70;;;9.00;;
4903;SDS011;2467;48.142;11.616;2023-06-10T02:25:36;10.88;;;10.00;;
4903;SDS011;2467;48.142;11.616;2023-06-10T02:26:09;10.02;;;9.32;;
4903;SDS011;2467;48.142;11.616;2023-06-10T02:26:41;9.35;;;8.65;;
4903;SDS011;2467;48.142;11.616;2023-06-10T02:27:14;9.98;;;9.27;;
4903;SDS011;2467;48.142;11.616;2023-06-10T02:27:47;9.93;;;9.23;;
4903;SDS011;2467;48.142;11.616;2023-06-10T02:28:19;11.25;;;9.10;;
4903;SDS011;2467;48.142;11.616;2023-06-10T02:28:51;9.70;;;8.90;;
4903;SDS011;2467;48.142;11.616;2023-06-10T02:29:24;10.02;;;9.05;;
4903;SDS011;2467;48.142;11.616;2023-06-10T02:29:56;9.95;;;9.30;;
4903;SDS011;2467;48.142;11.616;2023-06-10T02:30:28;10.27;;;9.48;;
4903;SDS011;2467;48.142;11.616;2023-06-10T02:31:01;9.60;;;8.90;;
4903;SDS011;2467;48.142;11.616;2023-06-10T02:31:33;9.25;;;8.35;;
4903;SDS011;2467;48.142;11.616;2023-06-10T02:32:07;10.10;;;9.30;;
4903;SDS011;2467;48.142;11.616;2023-06-10T02:32:41;9.30;;;8.60;;
4903;SDS011;2467;48.142;11.616;2023-06-10T02:33:14;9.00;;;8.20;;
4903;SDS011;2467;48.142;11.616;2023-06-10T02:33:46;9.48;;;8.77;;
4903;SDS011;2467;48.142;11.616;2023-06-10T02:34:19;9.07;;;8.40;;
4903;SDS011;2467;48.142;11.616;2023-06-10T02:34:51;8.48;;;7.90;;
4903;SDS011;2467;48.142;11.616;2023-06-10T02:35:23;9.10;;;8.38;;
4903;SDS011;2467;48.142;11.616;2023-06-10T02:35:55;10.52;;;9.55;;
4903;SDS011;2467;48.142;11.616;2023-06-10T02:36:28;9.18;;;8.45;;
4903;SDS011;2467;48.142;11.616;2023-06-10T02:37:00;10.32;;;9.63;;
4903;SDS011;2467;48.142;11.616;2023-06-10T02:37:33;9.98;;;9.20;;
4903;SDS011;2467;48.142;11.616;2023-06-10T02:38:05;9.95;;;9.25;;
4903;SDS011;2467;48.142;11.616;2023-06-10T02:38:38;11.30;;;10.40;;
4903;SDS011;2467;48.142;11.616;2023-06-10T02:39:11;9.52;;;8.88;;
4903;SDS011;2467;48.142;11.616;2023-06-10T02:39:43;10.35;;;9.60;;
4903;SDS011;2467;48.142;11.616;2023-06-10T02:40:16;9.35;;;8.65;;
4903;SDS011;2467;48.142;11.616;2023-06-10T02:40:48;9.75;;;9.02;;
4903;SDS011;2467;48.142;11.616;2023-06-10T02:41:20;10.68;;;9.88;;
4903;SDS011;2467;48.142;11.616;2023-06-10T02:41:52;10.57;;;9.82;;
4903;SDS011;2467;48.142;11.616;2023-06-10T02:42:25;10.35;;;9.65;;
4903;SDS011;2467;48.142;11.616;2023-06-10T02:42:57;9.18;;;8.57;;
4903;SDS011;2467;48.142;11.616;2023-06-10T02:43:29;11.20;;;10.40;;
4903;SDS011;2467;48.142;11.616;2023-06-10T02:44:02;9.57;;;8.98;;
4903;SDS011;2467;48.142;11.616;2023-06-10T02:44:34;10.52;;;9.75;;
4903;SDS011;2467;48.142;11.616;2023-06-10T02:45:07;9.80;;;9.10;;
4903;SDS011;2467;48.142;11.616;2023-06-10T02:45:41;10.07;;;9.27;;
4903;SDS011;2467;48.142;11.616;2023-06-10T02:46:13;10.07;;;9.18;;
4903;SDS011;2467;48.142;11.616;2023-06-10T02:46:45;11.30;;;10.40;;
4903;SDS011;2467;48.142;11.616;2023-06-10T02:47:18;11.38;;;10.48;;
4903;SDS011;2467;48.142;11.616;2023-06-10T02:47:50;11.10;;;10.23;;
4903;SDS011;2467;48.142;11.616;2023-06-10T02:48:23;10.52;;;9.65;;
4903;SDS011;2467;48.142;11.616;2023-06-10T02:48:55;9.40;;;8.75;;
4903;SDS011;2467;48.142;11.616;2023-06-10T02:49:28;9.77;;;9.07;;
4903;SDS011;2467;48.142;11.616;2023-06-10T02:50:00;9.63;;;8.98;;
4903;SDS011;2467;48.142;11.616;2023-06-10T02:50:32;10.30;;;9.50;;
4903;SDS011;2467;48.142;11.616;2023-06-10T02:51:04;9.95;;;9.05;;
4903;SDS011;2467;48.142;11.616;2023-06-10T02:51:36;10.80;;;9.98;;
4903;SDS011;2467;48.142;11.616;2023-06-10T02:52:08;10.00;;;9.23;;
4903;SDS011;2467;48.142;11.616;2023-06-10T02:52:43;9.88;;;9.18;;
4903;SDS011;2467;48.142;11.616;2023-06-10T02:53:16;10.23;;;9.50;;
4903;SDS011;2467;48.142;11.616;2023-06-10T02:53:48;9.73;;;9.02;;
4903;SDS011;2467;48.142;11.616;2023-06-10T02:54:20;10.40;;;9.70;;
4903;SDS011;2467;48.142;11.616;2023-06-10T02:54:53;10.13;;;9.20;;
4903;SDS011;2467;48.142;11.616;2023-06-10T02:55:25;10.63;;;9.82;;
4903;SDS011;2467;48.142;11.616;2023-06-10T02:55:58;10.43;;;9.63;;
4903;SDS011;2467;48.142;11.616;2023-06-10T02:56:31;10.43;;;9.63;;
4903;SDS011;2467;48.142;11.616;2023-06-10T02:57:04;9.73;;;9.10;;
4903;SDS011;2467;48.142;11.616;2023-06-10T02:57:37;10.93;;;10.13;;
4903;SDS011;2467;48.142;11.616;2023-06-10T02:58:10;11.18;;;10.38;;
4903;SDS011;2467;48.142;11.616;2023-06-10T02:58:42;10.18;;;9.45;;
4903;SDS011;2467;48.142;11.616;2023-06-10T02:59:14;10.27;;;9.48;;
4903;SDS011;2467;48.142;11.616;2023-06-10T02:59:47;9.77;;;9.18;;
4903;SDS011;2467;48.142;11.616;2023-06-10T03:00:19;10.75;;;9.95;;
4903;SDS011;2467;48.142;11.616;2023-06-10T03:00:51;10.95;;;10.15;;
4903;SDS011;2467;48.142;11.616;2023-06-10T03:01:23;9.85;;;9.10;;
4903;SDS011;2467;48.142;11.616;2023-06-10T03:01:56;10.45;;;9.65;;
4903;SDS011;2467;48.142;11.616;2023-06-10T03:02:28;10.10;;;9.32;;
4903;SDS011;2467;48.142;11.616;2023-06-10T03:03:00;10.98;;;10.18;;
4903;SDS011;2467;48.142;11.616;2023-06-10T03:03:36;10.57;;;9.80;;
4903;SDS011;2467;48.142;11.616;2023-06-10T03:04:13;10.27;;;9.57;;
4903;SDS011;2467;48.142;11.616;2023-06-10T03:04:47;11.00;;;10.18;;
4903;SDS011;2467;48.142;11.616;2023-06-10T03:05:21;11.07;;;9.98;;
4903;SDS011;2467;48.142;11.616;2023-06-10T03:05:54;10.02;;;9.32;;
4903;SDS011;2467;48.142;11.616;2023-06-10T03:06:27;10.57;;;9.77;;
4903;SDS011;2467;48.142;11.616;2023-06-10T03:07:00;10.15;;;9.30;;
4903;SDS011;2467;48.142;11.616;2023-06-10T03:07:35;10.68;;;9.77;;
4903;SDS011;2467;48.142;11.616;2023-06-10T03:08:10;9.43;;;8.73;;
4903;SDS011;2467;48.142;11.616;2023-06-10T03:08:42;10.32;;;9.55;;
4903;SDS011;2467;48.142;11.616;2023-06-10T03:09:15;11.63;;;10.73;;
4903;SDS011;2467;48.142;11.616;2023-06-10T03:09:46;10.75;;;9.95;;
4903;SDS011;2467;48.142;11.616;2023-06-10T03:10:18;9.95;;;9.25;;
4903;SDS011;2467;48.142;11.616;2023-06-10T03:10:51;8.88;;;8.27;;
4903;SDS011;2467;48.142;11.616;2023-06-10T03:11:23;10.05;;;9.35;;
4903;SDS011;2467;48.142;11.616;2023-06-10T03:11:57;11.02;;;10.05;;
4903;SDS011;2467;48.142;11.616;2023-06-10T03:12:29;11.30;;;10.40;;
4903;SDS011;2467;48.142;11.616;2023-06-10T03:13:01;12.02;;;10.52;;
4903;SDS011;2467;48.142;11.616;2023-06-10T03:13:33;10.50;;;9.50;;
4903;SDS011;2467;48.142;11.616;2023-06-10T03:14:05;10.93;;;10.02;;
4903;SDS011;2467;48.142;11.616;2023-06-10T03:14:38;10.65;;;9.68;;
4903;SDS011;2467;48.142;11.616;2023-06-10T03:15:10;9.48;;;8.82;;
4903;SDS011;2467;48.142;11.616;2023-06-10T03:15:43;10.80;;;10.00;;
4903;SDS011;2467;48.142;11.616;2023-06-10T03:16:17;10.18;;;9.40;;
4903;SDS011;2467;48.142;11.616;2023-06-10T03:16:49;10.27;;;9.38;;
4903;SDS011;2467;48.142;11.616;2023-06-10T03:17:21;11.25;;;10.35;;
4903;SDS011;2467;48.142;11.616;2023-06-10T03:17:54;13.32;;;12.30;;
4903;SDS011;2467;48.142;11.616;2023-06-10T03:18:27;11.35;;;10.55;;
4903;SDS011;2467;48.142;11.616;2023-06-10T03:18:59;11.90;;;10.90;;
4903;SDS011;2467;48.142;11.616;2023-06-10T03:19:32;11.10;;;10.23;;
4903;SDS011;2467;48.142;11.616;2023-06-10T03:20:05;10.30;;;9.32;;
4903;SDS011;2467;48.142;11.616;2023-06-10T03:20:39;10.82;;;10.02;;
4903;SDS011;2467;48.142;11.616;2023-06-10T03:21:11;10.60;;;9.85;;
4903;SDS011;2467;48.142;11.616;2023-06-10T03:21:44;10.60;;;9.77;;
4903;SDS011;2467;48.142;11.616;2023-06-10T03:22:16;10.90;;;10.07;;
4903;SDS011;2467;48.142;11.616;2023-06-10T03:22:49;11.45;;;10.55;;